createdAt,value
2023-09-03T00:01:09.552Z,99.90
2023-09-03T00:03:37.711Z,99.90
2023-09-03T00:06:05.843Z,99.90
2023-09-03T00:08:34.056Z,99.90
2023-09-03T00:11:02.306Z,99.90
2023-09-03T00:13:30.398Z,99.90
2023-09-03T00:15:58.315Z,99.90
2023-09-03T00:18:27.742Z,99.90
2023-09-03T00:20:59.132Z,99.90
2023-09-03T00:23:27.101Z,99.90
2023-09-03T00:25:55.439Z,99.90
2023-09-03T00:28:24.239Z,99.90
2023-09-03T00:31:03.295Z,99.90
2023-09-03T00:33:33.384Z,99.90
2023-09-03T00:36:03.122Z,99.90
2023-09-03T00:38:31.206Z,99.90
2023-09-03T00:40:59.583Z,99.90
2023-09-03T00:43:27.591Z,99.90
2023-09-03T00:45:55.654Z,99.90
2023-09-03T00:48:29.831Z,99.90
2023-09-03T00:51:03.315Z,99.90
2023-09-03T00:53:33.028Z,99.90
2023-09-03T00:56:03.832Z,99.90
2023-09-03T00:58:32.272Z,99.90
2023-09-03T01:01:00.419Z,99.90
2023-09-03T01:03:29.227Z,99.90
2023-09-03T01:05:57.408Z,99.90
2023-09-03T01:08:28.218Z,99.90
2023-09-03T01:11:06.960Z,99.90
2023-09-03T01:13:42.350Z,99.90
2023-09-03T01:16:17.474Z,99.90
2023-09-03T01:18:47.222Z,99.90
2023-09-03T01:21:45.989Z,99.90
2023-09-03T01:24:42.550Z,99.90
2023-09-03T01:27:24.027Z,99.90
2023-09-03T01:29:54.108Z,99.90
2023-09-03T01:32:23.518Z,99.90
2023-09-03T01:34:53.274Z,99.90
2023-09-03T01:37:21.751Z,99.90
2023-09-03T01:39:49.881Z,99.90
2023-09-03T01:42:17.849Z,99.90
2023-09-03T01:44:46.200Z,99.90
2023-09-03T01:47:24.568Z,99.90
2023-09-03T01:49:57.407Z,99.90
2023-09-03T01:52:37.957Z,99.90
2023-09-03T01:55:12.167Z,99.90
2023-09-03T01:57:44.480Z,99.90
2023-09-03T02:00:14.678Z,99.90
2023-09-03T02:02:46.533Z,99.90
2023-09-03T02:05:15.100Z,99.90
2023-09-03T02:07:43.841Z,99.90
2023-09-03T02:10:12.233Z,99.90
2023-09-03T02:12:40.394Z,99.90
2023-09-03T02:15:09.456Z,99.90
2023-09-03T02:17:37.497Z,99.90
2023-09-03T02:20:08.455Z,99.90
2023-09-03T02:22:36.414Z,99.90
2023-09-03T02:25:04.687Z,99.90
2023-09-03T02:27:32.602Z,99.90
2023-09-03T02:30:00.512Z,99.90
2023-09-03T02:32:28.485Z,99.90
2023-09-03T02:34:56.811Z,99.90
2023-09-03T02:37:26.116Z,99.90
2023-09-03T02:39:54.315Z,99.90
2023-09-03T02:42:22.302Z,99.90
2023-09-03T02:44:50.221Z,99.90
2023-09-03T02:47:20.094Z,99.90
2023-09-03T02:49:49.148Z,99.90
2023-09-03T02:52:17.191Z,99.90
2023-09-03T02:54:46.728Z,99.90
2023-09-03T02:57:14.661Z,99.90
2023-09-03T02:59:44.796Z,99.90
2023-09-03T03:02:12.892Z,99.90
2023-09-03T03:04:41.093Z,99.90
2023-09-03T03:07:09.230Z,99.90
2023-09-03T03:09:37.158Z,99.90
2023-09-03T03:12:07.391Z,99.90
2023-09-03T03:14:35.358Z,99.90
2023-09-03T03:17:03.679Z,99.90
2023-09-03T03:19:32.923Z,99.90
2023-09-03T03:22:00.986Z,99.90
2023-09-03T03:24:28.957Z,99.90
2023-09-03T03:26:56.938Z,99.90
2023-09-03T03:29:26.168Z,99.90
2023-09-03T03:31:54.218Z,99.90
2023-09-03T03:34:22.306Z,99.90
2023-09-03T03:36:50.282Z,99.90
2023-09-03T03:39:18.566Z,99.90
2023-09-03T03:41:46.548Z,99.90
2023-09-03T03:44:14.699Z,99.90
2023-09-03T03:46:44.013Z,99.90
2023-09-03T03:49:11.970Z,99.90
2023-09-03T03:51:39.901Z,99.90
2023-09-03T03:54:08.134Z,99.90
2023-09-03T03:56:36.037Z,99.90
2023-09-03T03:59:04.812Z,99.90
2023-09-03T04:01:32.852Z,99.90
2023-09-03T04:04:02.371Z,99.90
2023-09-03T04:06:31.032Z,99.90
2023-09-03T04:08:58.991Z,99.90
2023-09-03T04:11:28.036Z,99.90
2023-09-03T04:13:55.995Z,99.90
2023-09-03T04:16:24.737Z,99.90
2023-09-03T04:18:52.962Z,99.90
2023-09-03T04:21:22.605Z,99.90
2023-09-03T04:23:50.813Z,99.90
2023-09-03T04:26:18.757Z,99.90
2023-09-03T04:28:46.757Z,99.90
2023-09-03T04:31:14.735Z,99.90
2023-09-03T04:33:43.252Z,99.90
2023-09-03T04:36:11.626Z,99.90
2023-09-03T04:38:41.241Z,99.90
2023-09-03T04:41:09.816Z,99.90
2023-09-03T04:43:39.099Z,99.90
2023-09-03T04:46:07.115Z,99.90
2023-09-03T04:48:35.134Z,99.90
2023-09-03T04:51:06.381Z,99.90
2023-09-03T04:53:34.699Z,99.90
2023-09-03T04:56:04.431Z,99.90
2023-09-03T04:58:32.358Z,99.90
2023-09-03T05:01:02.750Z,99.90
2023-09-03T05:03:30.745Z,99.90
2023-09-03T05:06:00.828Z,99.90
2023-09-03T05:08:28.993Z,99.90
2023-09-03T05:10:56.992Z,99.90
2023-09-03T05:13:26.397Z,99.90
2023-09-03T05:15:54.510Z,99.90
2023-09-03T05:18:23.120Z,99.90
2023-09-03T05:20:51.251Z,99.90
2023-09-03T05:23:19.304Z,99.90
2023-09-03T05:25:47.846Z,99.90
2023-09-03T05:28:15.859Z,99.90
2023-09-03T05:30:45.140Z,99.90
2023-09-03T05:33:13.272Z,99.90
2023-09-03T05:35:43.241Z,99.90
2023-09-03T05:38:11.287Z,99.90
2023-09-03T05:40:39.305Z,99.90
2023-09-03T05:43:07.491Z,99.90
2023-09-03T05:45:35.528Z,99.90
2023-09-03T05:48:05.454Z,99.90
2023-09-03T05:50:33.540Z,99.90
2023-09-03T05:53:01.484Z,99.90
2023-09-03T05:55:28.515Z,99.90
2023-09-03T05:58:11.432Z,99.90
2023-09-03T06:00:44.505Z,99.90
2023-09-03T06:03:12.818Z,99.90
2023-09-03T06:05:40.904Z,99.90
2023-09-03T06:08:11.609Z,99.90
2023-09-03T06:10:40.067Z,99.90
2023-09-03T06:13:08.099Z,99.90
2023-09-03T06:15:37.419Z,99.90
2023-09-03T06:18:05.673Z,99.90
2023-09-03T06:20:38.437Z,99.90
2023-09-03T06:23:06.643Z,99.90
2023-09-03T06:25:34.610Z,99.90
2023-09-03T06:28:02.542Z,99.90
2023-09-03T06:30:30.569Z,99.90
2023-09-03T06:33:00.138Z,99.90
2023-09-03T06:35:28.167Z,99.90
2023-09-03T06:37:56.898Z,99.90
2023-09-03T06:40:25.227Z,99.90
2023-09-03T06:42:53.428Z,99.90
2023-09-03T06:45:21.675Z,99.90
2023-09-03T06:47:49.674Z,99.90
2023-09-03T06:50:19.403Z,99.90
2023-09-03T06:52:48.039Z,99.90
2023-09-03T06:55:18.805Z,99.90
2023-09-03T06:57:47.416Z,99.90
2023-09-03T07:00:17.335Z,99.90
2023-09-03T07:02:45.494Z,99.90
2023-09-03T07:05:15.654Z,99.90
2023-09-03T07:07:45.317Z,99.90
2023-09-03T07:10:13.475Z,99.90
2023-09-03T07:12:41.636Z,99.90
2023-09-03T07:15:10.963Z,99.90
2023-09-03T07:17:39.108Z,99.90
2023-09-03T07:20:08.447Z,99.90
2023-09-03T07:22:36.449Z,99.90
2023-09-03T07:25:06.368Z,99.90
2023-09-03T07:27:36.181Z,99.90
2023-09-03T07:30:04.338Z,99.90
2023-09-03T07:32:32.411Z,99.90
2023-09-03T07:35:00.907Z,99.90
2023-09-03T07:37:28.859Z,99.90
2023-09-03T07:39:56.834Z,99.90
2023-09-03T07:42:26.063Z,99.90
2023-09-03T07:44:54.277Z,99.90
2023-09-03T07:47:22.622Z,99.90
2023-09-03T07:49:50.628Z,99.90
2023-09-03T07:52:18.839Z,99.90
2023-09-03T07:54:46.862Z,99.90
2023-09-03T07:57:15.492Z,99.90
2023-09-03T07:59:44.796Z,99.90
2023-09-03T08:02:12.810Z,99.90
2023-09-03T08:04:43.492Z,99.90
2023-09-03T08:07:11.476Z,99.90
2023-09-03T08:09:40.039Z,99.90
2023-09-03T08:12:08.822Z,99.90
2023-09-03T08:14:38.249Z,99.90
2023-09-03T08:17:07.807Z,99.90
2023-09-03T08:19:37.447Z,99.90
2023-09-03T08:22:06.074Z,99.90
2023-09-03T08:24:33.998Z,99.90
2023-09-03T08:27:01.900Z,99.90
2023-09-03T08:29:29.876Z,99.90
2023-09-03T08:31:57.964Z,99.90
2023-09-03T08:34:27.521Z,99.90
2023-09-03T08:36:55.599Z,99.90
2023-09-03T08:39:23.519Z,99.90
2023-09-03T08:41:52.526Z,99.90
2023-09-03T08:44:28.882Z,99.90
2023-09-03T08:47:00.924Z,99.90
2023-09-03T08:49:32.143Z,99.90
2023-09-03T08:52:00.705Z,99.90
2023-09-03T08:54:29.341Z,99.90
2023-09-03T08:56:58.295Z,99.90
2023-09-03T08:59:26.255Z,99.90
2023-09-03T09:01:56.385Z,99.90
2023-09-03T09:04:25.152Z,99.90
2023-09-03T09:06:54.576Z,99.90
2023-09-03T09:09:24.017Z,99.90
2023-09-03T09:11:59.821Z,99.90
2023-09-03T09:14:36.004Z,99.90
2023-09-03T09:17:05.062Z,99.90
2023-09-03T09:19:33.021Z,99.90
2023-09-03T09:22:02.658Z,99.90
2023-09-03T09:24:30.749Z,99.90
2023-09-03T09:27:15.542Z,99.90
2023-09-03T09:29:43.686Z,99.90
2023-09-03T09:32:20.137Z,99.90
2023-09-03T09:34:48.425Z,99.90
2023-09-03T09:37:18.467Z,99.90
2023-09-03T09:39:48.220Z,99.90
2023-09-03T09:42:19.937Z,99.90
2023-09-03T09:45:01.240Z,99.90
2023-09-03T09:47:29.726Z,99.90
2023-09-03T09:49:57.963Z,99.90
2023-09-03T09:52:37.311Z,99.90
2023-09-03T09:55:06.124Z,99.90
2023-09-03T09:57:34.774Z,99.90
2023-09-03T10:00:05.845Z,99.90
2023-09-03T10:02:38.259Z,99.90
2023-09-03T10:05:11.438Z,99.90
2023-09-03T10:07:42.296Z,99.90
2023-09-03T10:10:11.232Z,99.90
2023-09-03T10:12:39.176Z,99.90
2023-09-03T10:15:08.333Z,99.90
2023-09-03T10:17:38.428Z,99.90
2023-09-03T10:20:12.094Z,99.90
2023-09-03T10:22:42.260Z,99.90
2023-09-03T10:25:14.080Z,99.90
2023-09-03T10:27:47.457Z,99.90
2023-09-03T10:30:19.781Z,99.90
2023-09-03T10:32:48.135Z,99.90
2023-09-03T10:35:16.069Z,99.90
2023-09-03T10:37:45.977Z,99.90
2023-09-03T10:40:21.962Z,99.90
2023-09-03T10:42:50.076Z,99.90
2023-09-03T10:45:19.302Z,99.90
2023-09-03T10:48:08.265Z,99.90
2023-09-03T10:50:46.675Z,99.90
2023-09-03T10:53:38.459Z,99.90
2023-09-03T10:56:15.256Z,99.90
2023-09-03T10:59:00.933Z,99.90
2023-09-03T11:01:32.160Z,99.90
2023-09-03T11:04:01.563Z,99.90
2023-09-03T11:06:32.271Z,99.90
2023-09-03T11:09:26.568Z,99.90
2023-09-03T11:12:03.100Z,99.90
2023-09-03T11:14:33.051Z,99.90
2023-09-03T11:17:01.705Z,99.90
2023-09-03T11:19:41.155Z,99.90
2023-09-03T11:22:09.308Z,99.90
2023-09-03T11:24:49.694Z,99.90
2023-09-03T11:27:17.732Z,99.90
2023-09-03T11:29:45.647Z,99.90
2023-09-03T11:32:13.595Z,99.90
2023-09-03T11:34:41.733Z,99.90
2023-09-03T11:37:10.788Z,99.90
2023-09-03T11:39:38.851Z,99.90
2023-09-03T11:42:14.201Z,99.90
2023-09-03T11:44:42.208Z,99.90
2023-09-03T11:47:10.349Z,99.90
2023-09-03T11:49:38.313Z,99.90
2023-09-03T11:52:12.017Z,99.90
2023-09-03T11:54:39.857Z,99.90
2023-09-03T11:57:13.041Z,99.90
2023-09-03T11:59:41.482Z,99.90
2023-09-03T12:02:10.749Z,99.90
2023-09-03T12:04:41.080Z,99.90
2023-09-03T12:07:17.152Z,99.90
2023-09-03T12:09:45.537Z,99.90
2023-09-03T12:12:14.994Z,99.90
2023-09-03T12:14:43.299Z,99.90
2023-09-03T12:17:12.004Z,99.90
2023-09-03T12:19:40.929Z,99.90
2023-09-03T12:22:09.320Z,99.90
2023-09-03T12:24:38.005Z,99.90
2023-09-03T12:27:08.213Z,99.90
2023-09-03T12:29:51.630Z,99.90
2023-09-03T12:32:33.451Z,99.90
2023-09-03T12:35:01.792Z,99.90
2023-09-03T12:37:41.177Z,99.90
2023-09-03T12:40:10.286Z,99.90
2023-09-03T12:42:38.829Z,99.90
2023-09-03T12:45:10.196Z,99.90
2023-09-03T12:47:38.444Z,99.90
2023-09-03T12:50:08.888Z,99.90
2023-09-03T12:52:37.100Z,99.90
2023-09-03T12:55:05.858Z,99.90
2023-09-03T12:57:33.850Z,99.90
2023-09-03T13:00:02.536Z,99.90
2023-09-03T13:02:31.985Z,99.90
2023-09-03T13:04:59.994Z,99.90
2023-09-03T13:07:27.905Z,98.70
2023-09-03T13:09:55.810Z,96.90
2023-09-03T13:12:23.773Z,95.80
2023-09-03T13:14:51.997Z,94.30
2023-09-03T13:17:20.048Z,93.40
2023-09-03T13:19:49.335Z,92.50
2023-09-03T13:22:17.294Z,92.40
2023-09-03T13:24:49.314Z,91.70
2023-09-03T13:27:17.665Z,91.80
2023-09-03T13:29:45.625Z,91.10
2023-09-03T13:32:13.562Z,90.90
2023-09-03T13:34:42.112Z,91.90
2023-09-03T13:37:11.492Z,92.10
2023-09-03T13:39:39.574Z,92.50
2023-09-03T13:42:07.754Z,92.30
2023-09-03T13:44:35.750Z,92.30
2023-09-03T13:47:04.038Z,92.00
2023-09-03T13:49:31.990Z,92.40
2023-09-03T13:52:00.040Z,92.70
2023-09-03T13:54:29.648Z,92.00
2023-09-03T13:56:58.232Z,91.60
2023-09-03T13:59:26.324Z,92.40
2023-09-03T14:01:55.778Z,92.10
2023-09-03T14:04:24.006Z,92.50
2023-09-03T14:06:52.366Z,92.00
2023-09-03T14:09:20.256Z,91.80
2023-09-03T14:11:50.995Z,92.80
2023-09-03T14:14:18.987Z,92.40
2023-09-03T14:16:47.295Z,92.60
2023-09-03T14:19:15.419Z,91.40
2023-09-03T14:21:43.555Z,91.40
2023-09-03T14:24:11.476Z,91.80
2023-09-03T14:26:39.537Z,91.90
2023-09-03T14:29:11.137Z,92.10
2023-09-03T14:31:41.641Z,92.60
2023-09-03T14:34:09.999Z,93.80
2023-09-03T14:36:37.951Z,94.80
2023-09-03T14:39:06.441Z,95.20
2023-09-03T14:41:34.426Z,95.20
2023-09-03T14:44:03.082Z,95.30
2023-09-03T14:46:32.714Z,95.90
2023-09-03T14:49:01.218Z,96.40
2023-09-03T14:51:29.187Z,96.30
2023-09-03T14:53:57.066Z,96.70
2023-09-03T14:56:25.413Z,97.10
2023-09-03T14:58:53.453Z,97.40
2023-09-03T15:01:25.066Z,98.20
2023-09-03T15:03:55.400Z,98.10
2023-09-03T15:06:24.386Z,98.20
2023-09-03T15:08:52.564Z,98.70
2023-09-03T15:11:22.036Z,98.70
2023-09-03T15:13:53.828Z,98.70
2023-09-03T15:16:21.966Z,98.80
2023-09-03T15:18:50.081Z,99.40
2023-09-03T15:21:19.775Z,99.60
2023-09-03T15:23:47.698Z,99.80
2023-09-03T15:26:15.665Z,99.30
2023-09-03T15:28:43.842Z,99.90
2023-09-03T15:31:13.512Z,99.60
2023-09-03T15:33:41.701Z,99.80
2023-09-03T15:36:13.068Z,99.90
2023-09-03T15:38:42.774Z,99.90
2023-09-03T15:41:10.702Z,99.90
2023-09-03T15:43:38.744Z,99.90
2023-09-03T15:46:07.000Z,99.90
2023-09-03T15:48:34.978Z,99.90
2023-09-03T15:51:03.630Z,99.90
2023-09-03T15:53:31.880Z,99.90
2023-09-03T15:56:01.310Z,99.90
2023-09-03T15:58:29.422Z,99.90
2023-09-03T16:01:02.315Z,99.90
2023-09-03T16:03:30.395Z,99.90
2023-09-03T16:05:58.753Z,99.90
2023-09-03T16:08:26.962Z,99.90
2023-09-03T16:10:54.997Z,99.90
2023-09-03T16:13:26.034Z,99.90
2023-09-03T16:15:54.018Z,99.90
2023-09-03T16:18:22.234Z,99.90
2023-09-03T16:20:53.810Z,99.90
2023-09-03T16:23:21.788Z,99.90
2023-09-03T16:25:49.922Z,99.90
2023-09-03T16:28:18.079Z,99.90
2023-09-03T16:30:48.500Z,99.90
2023-09-03T16:33:18.257Z,99.90
2023-09-03T16:35:46.830Z,99.90
2023-09-03T16:38:14.940Z,99.90
2023-09-03T16:40:43.028Z,99.90
2023-09-03T16:43:11.075Z,99.90
2023-09-03T16:45:43.825Z,99.90
2023-09-03T16:48:13.306Z,99.90
2023-09-03T16:50:41.845Z,99.90
2023-09-03T16:53:11.266Z,99.90
2023-09-03T16:55:41.032Z,99.90
2023-09-03T16:58:09.184Z,99.90
2023-09-03T17:00:37.542Z,99.90
2023-09-03T17:03:06.042Z,99.90
2023-09-03T17:05:35.429Z,99.90
2023-09-03T17:08:05.320Z,99.90
2023-09-03T17:10:33.859Z,99.90
2023-09-03T17:13:02.075Z,99.90
2023-09-03T17:15:31.810Z,99.90
2023-09-03T17:17:59.765Z,99.90
2023-09-03T17:20:28.028Z,99.90
2023-09-03T17:22:57.343Z,99.90
2023-09-03T17:25:25.369Z,99.90
2023-09-03T17:27:53.609Z,99.90
2023-09-03T17:30:21.699Z,99.90
2023-09-03T17:32:49.634Z,99.90
2023-09-03T17:35:17.908Z,99.90
2023-09-03T17:37:47.156Z,99.90
2023-09-03T17:40:20.213Z,99.90
2023-09-03T17:42:48.714Z,99.90
2023-09-03T17:45:16.901Z,99.90
2023-09-03T17:47:45.233Z,99.90
2023-09-03T17:50:14.322Z,99.90
2023-09-03T17:52:42.310Z,99.90
2023-09-03T17:55:10.714Z,99.90
2023-09-03T17:57:40.145Z,99.90
2023-09-03T18:00:09.439Z,99.90
2023-09-03T18:02:37.697Z,99.90
2023-09-03T18:05:05.887Z,99.90
2023-09-03T18:07:34.236Z,99.90
2023-09-03T18:10:02.189Z,99.90
2023-09-03T18:12:30.456Z,99.90
2023-09-03T18:15:00.194Z,99.90
2023-09-03T18:17:28.127Z,99.90
2023-09-03T18:19:56.166Z,99.90
2023-09-03T18:22:24.066Z,99.90
2023-09-03T18:24:51.925Z,99.90
2023-09-03T18:27:19.884Z,99.90
2023-09-03T18:29:47.764Z,99.90
2023-09-03T18:32:17.509Z,99.90
2023-09-03T18:34:45.655Z,99.90
2023-09-03T18:37:13.625Z,99.90
2023-09-03T18:39:41.468Z,99.90
2023-09-03T18:42:09.494Z,99.90
2023-09-03T18:44:37.409Z,99.90
2023-09-03T18:47:06.246Z,99.90
2023-09-03T18:49:35.688Z,99.90
2023-09-03T18:52:03.698Z,99.90
2023-09-03T18:54:31.602Z,99.90
2023-09-03T18:57:00.517Z,99.90
2023-09-03T18:59:28.838Z,99.90
2023-09-03T19:01:56.931Z,99.90
2023-09-03T19:04:25.004Z,99.90
2023-09-03T19:06:54.501Z,99.90
2023-09-03T19:09:22.465Z,99.90
2023-09-03T19:11:50.407Z,99.90
2023-09-03T19:14:18.341Z,99.90
2023-09-03T19:16:46.268Z,99.90
2023-09-03T19:19:14.290Z,99.90
2023-09-03T19:21:42.301Z,99.90
2023-09-03T19:24:11.578Z,99.90
2023-09-03T19:26:39.524Z,99.90
2023-09-03T19:29:07.429Z,99.90
2023-09-03T19:31:35.374Z,99.90
2023-09-03T19:34:18.557Z,99.90
2023-09-03T19:36:51.221Z,99.90
2023-09-03T19:39:20.561Z,99.90
2023-09-03T19:41:51.649Z,99.90
2023-09-03T19:44:21.702Z,99.90
2023-09-03T19:46:50.384Z,99.90
2023-09-03T19:49:18.708Z,99.90
2023-09-03T19:51:48.218Z,99.90
2023-09-03T19:54:16.125Z,99.90
2023-09-03T19:56:45.487Z,99.90
2023-09-03T19:59:13.399Z,99.90
2023-09-03T20:01:41.728Z,99.90
2023-09-03T20:04:09.699Z,99.90
2023-09-03T20:06:37.606Z,99.90
2023-09-03T20:09:06.908Z,99.90
2023-09-03T20:11:35.069Z,99.90
2023-09-03T20:14:04.414Z,99.90
2023-09-03T20:16:32.412Z,99.90
2023-09-03T20:19:00.368Z,99.90
2023-09-03T20:21:28.312Z,99.90
2023-09-03T20:23:56.257Z,99.90
2023-09-03T20:26:25.582Z,99.90
2023-09-03T20:28:53.899Z,99.90
2023-09-03T20:31:23.794Z,99.90
2023-09-03T20:33:51.810Z,99.90
2023-09-03T20:36:19.837Z,99.90
2023-09-03T20:38:47.990Z,99.90
2023-09-03T20:41:15.958Z,99.90
2023-09-03T20:43:44.051Z,99.90
2023-09-03T20:46:12.215Z,99.90
2023-09-03T20:48:41.780Z,99.90
2023-09-03T20:51:09.772Z,99.90
2023-09-03T20:53:37.925Z,99.90
2023-09-03T20:56:06.264Z,99.90
2023-09-03T20:58:34.237Z,99.90
2023-09-03T21:01:02.278Z,99.90
2023-09-03T21:03:33.334Z,99.90
2023-09-03T21:06:03.226Z,99.90
2023-09-03T21:08:31.716Z,99.90
2023-09-03T21:11:01.016Z,99.90
2023-09-03T21:13:30.179Z,99.90
2023-09-03T21:15:59.368Z,99.90
2023-09-03T21:18:29.410Z,99.90
2023-09-03T21:21:03.446Z,99.90
2023-09-03T21:23:32.425Z,99.90
2023-09-03T21:26:00.603Z,99.90
2023-09-03T21:28:28.526Z,99.90
2023-09-03T21:30:56.510Z,99.90
2023-09-03T21:33:24.767Z,99.90
2023-09-03T21:35:52.678Z,99.90
2023-09-03T21:38:22.331Z,99.90
2023-09-03T21:40:50.837Z,99.90
2023-09-03T21:43:18.919Z,99.90
2023-09-03T21:45:47.012Z,99.90
2023-09-03T21:48:15.090Z,99.90
2023-09-03T21:50:43.049Z,99.90
2023-09-03T21:53:10.996Z,99.90
2023-09-03T21:55:40.444Z,99.90
2023-09-03T21:58:08.385Z,99.90
2023-09-03T22:00:37.556Z,99.90
2023-09-03T22:03:05.700Z,99.90
2023-09-03T22:05:36.399Z,99.90
2023-09-03T22:08:05.719Z,99.90
2023-09-03T22:10:33.770Z,99.90
2023-09-03T22:13:04.323Z,99.90
2023-09-03T22:15:33.061Z,99.90
2023-09-03T22:18:02.876Z,99.90
2023-09-03T22:20:32.659Z,99.90
2023-09-03T22:23:00.654Z,99.90
2023-09-03T22:25:28.594Z,99.90
2023-09-03T22:27:56.507Z,99.90
2023-09-03T22:30:25.823Z,99.90
2023-09-03T22:32:53.837Z,99.90
2023-09-03T22:35:21.825Z,99.90
2023-09-03T22:37:49.729Z,99.90
2023-09-03T22:40:17.646Z,99.90
2023-09-03T22:42:45.025Z,99.90
2023-09-03T22:45:14.142Z,99.90
2023-09-03T22:47:43.464Z,99.90
2023-09-03T22:50:11.662Z,99.90
2023-09-03T22:52:39.902Z,99.90
2023-09-03T22:55:08.358Z,99.90
2023-09-03T22:57:36.359Z,99.90
2023-09-03T23:00:05.273Z,99.90
2023-09-03T23:02:33.299Z,99.90
2023-09-03T23:05:02.570Z,99.90
2023-09-03T23:07:31.470Z,99.90
2023-09-03T23:10:02.474Z,99.90
2023-09-03T23:12:30.521Z,99.90
2023-09-03T23:14:59.623Z,99.90
2023-09-03T23:17:29.348Z,99.90
2023-09-03T23:19:58.404Z,99.90
2023-09-03T23:22:29.290Z,99.90
2023-09-03T23:24:57.469Z,99.90
2023-09-03T23:27:25.755Z,99.90
2023-09-03T23:29:53.680Z,99.90
2023-09-03T23:32:21.732Z,99.90
2023-09-03T23:34:49.697Z,99.90
2023-09-03T23:37:17.659Z,99.90
2023-09-03T23:39:47.090Z,99.90
2023-09-03T23:42:15.156Z,99.90
2023-09-03T23:44:43.119Z,99.90
2023-09-03T23:47:15.445Z,99.90
2023-09-03T23:49:44.816Z,99.90
2023-09-03T23:52:12.741Z,99.90
2023-09-03T23:54:40.644Z,99.90
2023-09-03T23:57:09.960Z,99.90
2023-09-03T23:59:39.041Z,99.90
